createdAt,value
2023-02-12T00:00:39.034Z,100590.27
2023-02-12T00:04:01.104Z,100600.52
2023-02-12T00:07:02.730Z,100601.39
2023-02-12T00:10:04.814Z,100607.19
2023-02-12T00:13:06.765Z,100610.79
2023-02-12T00:16:10.550Z,100609.77
2023-02-12T00:19:12.095Z,100608.91
2023-02-12T00:22:13.661Z,100609.09
2023-02-12T00:25:15.605Z,100607.73
2023-02-12T00:28:17.361Z,100606.35
2023-02-12T00:31:20.326Z,100606.87
2023-02-12T00:34:22.113Z,100602.94
2023-02-12T00:37:23.702Z,100613.02
2023-02-12T00:40:25.912Z,100613.02
2023-02-12T00:43:27.616Z,100610.97
2023-02-12T00:46:29.535Z,100615.39
2023-02-12T00:49:32.337Z,100617.27
2023-02-12T00:52:33.844Z,100613.34
2023-02-12T00:55:35.843Z,100622.75
2023-02-12T00:58:37.680Z,100621.71
2023-02-12T01:01:39.201Z,100622.25
2023-02-12T01:04:40.934Z,100620.89
2023-02-12T01:07:43.061Z,100621.92
2023-02-12T01:10:45.226Z,100628.43
2023-02-12T01:13:47.189Z,100633.58
2023-02-12T01:16:48.815Z,100636.83
2023-02-12T01:19:50.488Z,100639.75
2023-02-12T01:22:52.065Z,100638.90
2023-02-12T01:25:54.336Z,100644.03
2023-02-12T01:28:59.644Z,100643.02
2023-02-12T01:32:01.331Z,100642.33
2023-02-12T01:35:03.047Z,100648.49
2023-02-12T01:38:04.565Z,100646.61
2023-02-12T01:41:08.699Z,100652.94
2023-02-12T01:44:19.143Z,100656.53
2023-02-12T01:47:20.774Z,100661.84
2023-02-12T01:50:22.514Z,100659.95
2023-02-12T01:53:26.118Z,100660.46
2023-02-12T01:56:27.692Z,100663.55
2023-02-12T01:59:30.189Z,100668.00
2023-02-12T02:02:32.433Z,100674.32
2023-02-12T02:05:47.529Z,100676.38
2023-02-12T02:08:49.293Z,100677.40
2023-02-12T02:11:50.742Z,100679.11
2023-02-12T02:14:55.783Z,100683.23
2023-02-12T02:18:02.887Z,100691.45
2023-02-12T02:21:13.625Z,100702.38
2023-02-12T02:24:24.110Z,100709.40
2023-02-12T02:28:03.672Z,100720.35
2023-02-12T02:31:21.604Z,100730.44
2023-02-12T02:34:40.641Z,100737.44
2023-02-12T02:37:53.999Z,100749.08
2023-02-12T02:41:29.281Z,100755.40
2023-02-12T02:44:54.786Z,100759.16
2023-02-12T02:48:45.939Z,100760.33
2023-02-12T02:51:50.783Z,100765.63
2023-02-12T02:54:56.341Z,100768.00
2023-02-12T02:58:01.608Z,100764.40
2023-02-12T03:01:11.099Z,100763.02
2023-02-12T03:04:21.311Z,100773.59
2023-02-12T03:07:28.584Z,100784.52
2023-02-12T03:10:35.333Z,100784.00
2023-02-12T03:13:41.874Z,100794.08
2023-02-12T03:17:03.934Z,100793.39
2023-02-12T03:20:09.525Z,100798.17
2023-02-12T03:23:19.327Z,100806.73
2023-02-12T03:26:24.240Z,100816.97
2023-02-12T03:29:26.550Z,100828.58
2023-02-12T03:32:30.102Z,100825.83
2023-02-12T03:35:51.249Z,100822.92
2023-02-12T03:38:54.906Z,100838.31
2023-02-12T03:42:09.167Z,100832.98
2023-02-12T03:45:23.001Z,100830.75
2023-02-12T03:48:39.127Z,100837.08
2023-02-12T03:51:42.328Z,100844.94
2023-02-12T03:54:43.938Z,100852.95
2023-02-12T03:57:50.661Z,100858.92
2023-02-12T04:00:52.285Z,100867.77
2023-02-12T04:03:53.928Z,100877.15
2023-02-12T04:06:55.886Z,100890.11
2023-02-12T04:09:57.449Z,100891.48
2023-02-12T04:13:12.227Z,100894.39
2023-02-12T04:16:40.199Z,100906.84
2023-02-12T04:19:48.206Z,100917.92
2023-02-12T04:22:49.778Z,100925.45
2023-02-12T04:26:09.719Z,100929.54
2023-02-12T04:29:18.854Z,100937.21
2023-02-12T04:32:35.661Z,100943.01
2023-02-12T04:36:00.244Z,100945.52
2023-02-12T04:39:06.621Z,100950.61
2023-02-12T04:42:08.421Z,100957.41
2023-02-12T04:45:11.185Z,100962.65
2023-02-12T04:48:12.736Z,100967.63
2023-02-12T04:51:14.254Z,100977.13
2023-02-12T04:54:17.627Z,100979.83
2023-02-12T04:57:19.602Z,100981.54
2023-02-12T05:00:21.435Z,100987.51
2023-02-12T05:03:23.048Z,100992.91
2023-02-12T05:06:24.821Z,101001.46
2023-02-12T05:09:26.434Z,101005.39
2023-02-12T05:12:28.021Z,101011.85
2023-02-12T05:15:29.819Z,101017.59
2023-02-12T05:18:32.505Z,101021.36
2023-02-12T05:21:34.277Z,101026.84
2023-02-12T05:24:35.775Z,101034.84
2023-02-12T05:27:37.476Z,101038.70
2023-02-12T05:30:39.017Z,101039.57
2023-02-12T05:33:45.121Z,101051.07
2023-02-12T05:36:46.683Z,101061.83
2023-02-12T05:39:49.785Z,101064.20
2023-02-12T05:42:51.341Z,101062.44
2023-02-12T05:45:53.350Z,101065.86
2023-02-12T05:48:55.362Z,101065.67
2023-02-12T05:51:57.005Z,101070.60
2023-02-12T05:54:58.567Z,101084.20
2023-02-12T05:58:00.246Z,101097.44
2023-02-12T06:01:01.964Z,101095.43
2023-02-12T06:04:06.914Z,101100.59
2023-02-12T06:07:08.907Z,101105.23
2023-02-12T06:10:10.999Z,101107.38
2023-02-12T06:13:12.545Z,101111.06
2023-02-12T06:16:24.427Z,101115.18
2023-02-12T06:19:26.125Z,101122.02
2023-02-12T06:22:28.455Z,101134.81
2023-02-12T06:25:30.096Z,101141.96
2023-02-12T06:28:31.948Z,101147.84
2023-02-12T06:31:35.422Z,101149.95
2023-02-12T06:34:37.236Z,101156.37
2023-02-12T06:37:39.045Z,101162.43
2023-02-12T06:40:41.008Z,101167.31
2023-02-12T06:43:42.695Z,101172.73
2023-02-12T06:46:44.421Z,101172.86
2023-02-12T06:49:46.093Z,101176.77
2023-02-12T06:52:47.813Z,101183.41
2023-02-12T06:55:49.422Z,101184.39
2023-02-12T06:58:56.553Z,101189.66
2023-02-12T07:01:58.344Z,101198.88
2023-02-12T07:04:59.819Z,101203.14
2023-02-12T07:08:01.454Z,101210.67
2023-02-12T07:11:03.985Z,101211.91
2023-02-12T07:14:06.781Z,101218.65
2023-02-12T07:17:08.315Z,101219.88
2023-02-12T07:20:10.403Z,101223.34
2023-02-12T07:23:12.377Z,101223.89
2023-02-12T07:26:15.058Z,101219.84
2023-02-12T07:29:16.652Z,101225.45
2023-02-12T07:32:18.196Z,101231.77
2023-02-12T07:35:19.810Z,101237.78
2023-02-12T07:38:21.568Z,101233.73
2023-02-12T07:41:28.124Z,101233.15
2023-02-12T07:44:29.933Z,101235.47
2023-02-12T07:47:31.371Z,101236.90
2023-02-12T07:50:33.080Z,101245.67
2023-02-12T07:53:35.039Z,101253.08
2023-02-12T07:56:37.462Z,101260.52
2023-02-12T07:59:39.085Z,101264.91
2023-02-12T08:02:40.793Z,101269.77
2023-02-12T08:05:42.436Z,101270.67
2023-02-12T08:08:44.049Z,101265.77
2023-02-12T08:11:46.418Z,101270.13
2023-02-12T08:14:48.022Z,101268.01
2023-02-12T08:17:49.659Z,101268.98
2023-02-12T08:20:51.213Z,101267.95
2023-02-12T08:23:56.978Z,101271.08
2023-02-12T08:26:58.941Z,101271.72
2023-02-12T08:30:00.568Z,101272.57
2023-02-12T08:33:02.198Z,101275.13
2023-02-12T08:36:09.747Z,101277.04
2023-02-12T08:39:12.096Z,101279.38
2023-02-12T08:42:13.666Z,101279.90
2023-02-12T08:45:15.580Z,101285.94
2023-02-12T08:48:17.150Z,101285.50
2023-02-12T08:51:21.896Z,101284.60
2023-02-12T08:54:25.742Z,101290.38
2023-02-12T08:57:27.523Z,101300.56
2023-02-12T09:00:29.446Z,101307.55
2023-02-12T09:03:31.467Z,101311.86
2023-02-12T09:06:35.141Z,101311.09
2023-02-12T09:09:36.970Z,101319.98
2023-02-12T09:12:38.594Z,101330.52
2023-02-12T09:15:44.976Z,101333.65
2023-02-12T09:18:46.784Z,101334.34
2023-02-12T09:21:56.109Z,101336.46
2023-02-12T09:24:58.141Z,101338.16
2023-02-12T09:28:00.487Z,101345.60
2023-02-12T09:31:11.371Z,101350.67
2023-02-12T09:34:13.363Z,101357.91
2023-02-12T09:37:15.412Z,101360.27
2023-02-12T09:40:28.454Z,101365.25
2023-02-12T09:43:40.367Z,101364.55
2023-02-12T09:47:07.383Z,101363.98
2023-02-12T09:50:20.621Z,101361.48
2023-02-12T09:53:27.029Z,101359.44
2023-02-12T09:56:28.869Z,101360.64
2023-02-12T09:59:39.931Z,101364.41
2023-02-12T10:02:41.883Z,101366.60
2023-02-12T10:06:01.633Z,101372.05
2023-02-12T10:09:07.640Z,101372.33
2023-02-12T10:12:22.475Z,101376.92
2023-02-12T10:15:35.798Z,101380.92
2023-02-12T10:18:43.359Z,101380.98
2023-02-12T10:22:01.586Z,101382.64
2023-02-12T10:25:16.597Z,101390.50
2023-02-12T10:28:41.551Z,101402.11
2023-02-12T10:31:51.118Z,101404.34
2023-02-12T10:34:53.638Z,101400.41
2023-02-12T10:37:56.764Z,101403.52
2023-02-12T10:40:58.458Z,101404.21
2023-02-12T10:44:00.059Z,101406.92
2023-02-12T10:47:02.049Z,101404.14
2023-02-12T10:50:34.716Z,101404.11
2023-02-12T10:53:39.294Z,101397.09
2023-02-12T10:56:40.942Z,101392.70
2023-02-12T10:59:42.892Z,101392.02
2023-02-12T11:03:19.987Z,101393.47
2023-02-12T11:06:24.629Z,101395.52
2023-02-12T11:09:37.453Z,101396.23
2023-02-12T11:12:42.815Z,101390.31
2023-02-12T11:15:48.562Z,101393.14
2023-02-12T11:18:58.522Z,101390.63
2023-02-12T11:22:11.702Z,101392.40
2023-02-12T11:25:15.946Z,101387.52
2023-02-12T11:28:19.360Z,101392.02
2023-02-12T11:31:24.204Z,101388.38
2023-02-12T11:34:26.169Z,101389.08
2023-02-12T11:37:27.906Z,101395.41
2023-02-12T11:40:32.714Z,101397.48
2023-02-12T11:43:35.833Z,101396.43
2023-02-12T11:46:37.682Z,101397.45
2023-02-12T11:49:44.290Z,101399.85
2023-02-12T11:52:49.588Z,101395.38
2023-02-12T11:55:56.456Z,101390.09
2023-02-12T11:59:11.471Z,101392.15
2023-02-12T12:02:23.768Z,101387.70
2023-02-12T12:05:32.313Z,101392.16
2023-02-12T12:09:03.441Z,101392.63
2023-02-12T12:12:29.262Z,101397.39
2023-02-12T12:15:34.526Z,101398.02
2023-02-12T12:18:50.143Z,101392.83
2023-02-12T12:22:03.946Z,101388.59
2023-02-12T12:25:26.307Z,101383.50
2023-02-12T12:28:52.520Z,101384.52
2023-02-12T12:31:59.119Z,101387.23
2023-02-12T12:35:00.828Z,101385.08
2023-02-12T12:38:08.481Z,101378.28
2023-02-12T12:41:28.437Z,101380.55
2023-02-12T12:45:02.527Z,101387.98
2023-02-12T12:48:48.826Z,101381.42
2023-02-12T12:52:23.410Z,101382.69
2023-02-12T12:55:46.523Z,101386.87
2023-02-12T12:59:35.446Z,101386.88
2023-02-12T13:02:39.779Z,101384.42
2023-02-12T13:06:07.760Z,101378.95
2023-02-12T13:09:40.359Z,101378.32
2023-02-12T13:13:04.971Z,101379.85
2023-02-12T13:16:12.119Z,101385.40
2023-02-12T13:19:28.201Z,101392.18
2023-02-12T13:22:43.577Z,101399.89
2023-02-12T13:25:54.287Z,101405.15
2023-02-12T13:29:08.380Z,101403.58
2023-02-12T13:32:17.099Z,101399.99
2023-02-12T13:35:21.117Z,101399.54
2023-02-12T13:38:26.748Z,101402.80
2023-02-12T13:41:29.072Z,101404.35
2023-02-12T13:44:56.451Z,101399.15
2023-02-12T13:48:36.320Z,101401.37
2023-02-12T13:51:44.596Z,101411.18
2023-02-12T13:54:54.955Z,101409.90
2023-02-12T13:58:31.459Z,101408.63
2023-02-12T14:01:47.067Z,101404.77
2023-02-12T14:04:58.369Z,101405.82
2023-02-12T14:08:02.868Z,101408.67
2023-02-12T14:11:07.867Z,101406.43
2023-02-12T14:14:09.565Z,101407.08
2023-02-12T14:17:29.818Z,101409.11
2023-02-12T14:20:36.634Z,101404.32
2023-02-12T14:23:43.030Z,101402.77
2023-02-12T14:26:44.834Z,101404.60
2023-02-12T14:30:11.511Z,101402.06
2023-02-12T14:33:24.797Z,101399.33
2023-02-12T14:36:32.488Z,101395.73
2023-02-12T14:39:34.033Z,101395.22
2023-02-12T14:42:35.508Z,101390.77
2023-02-12T14:45:37.720Z,101386.30
2023-02-12T14:48:53.002Z,101383.95
2023-02-12T14:52:00.958Z,101383.51
2023-02-12T14:55:07.573Z,101391.54
2023-02-12T14:58:18.089Z,101397.35
2023-02-12T15:01:29.089Z,101395.83
2023-02-12T15:04:33.550Z,101399.18
2023-02-12T15:07:44.793Z,101399.75
2023-02-12T15:10:49.904Z,101403.87
2023-02-12T15:14:15.664Z,101408.61
2023-02-12T15:17:40.258Z,101407.61
2023-02-12T15:20:56.394Z,101407.38
2023-02-12T15:24:09.010Z,101410.64
2023-02-12T15:27:13.766Z,101407.40
2023-02-12T15:30:26.349Z,101411.10
2023-02-12T15:33:30.621Z,101414.34
2023-02-12T15:36:33.543Z,101415.00
2023-02-12T15:39:44.963Z,101408.45
2023-02-12T15:42:52.015Z,101405.20
2023-02-12T15:45:54.172Z,101410.58
2023-02-12T15:48:56.057Z,101414.98
2023-02-12T15:51:58.960Z,101420.98
2023-02-12T15:55:01.163Z,101427.05
2023-02-12T15:58:02.708Z,101431.14
2023-02-12T16:01:06.590Z,101428.42
2023-02-12T16:04:08.524Z,101429.05
2023-02-12T16:07:12.041Z,101425.92
2023-02-12T16:10:18.783Z,101421.95
2023-02-12T16:13:32.542Z,101423.43
2023-02-12T16:16:46.247Z,101427.72
2023-02-12T16:19:58.590Z,101430.83
2023-02-12T16:23:05.823Z,101427.34
2023-02-12T16:26:07.324Z,101433.86
2023-02-12T16:29:16.633Z,101430.56
2023-02-12T16:32:35.717Z,101435.23
2023-02-12T16:35:37.226Z,101441.61
2023-02-12T16:38:53.316Z,101451.77
2023-02-12T16:41:56.704Z,101463.36
2023-02-12T16:44:58.691Z,101465.93
2023-02-12T16:48:06.653Z,101467.52
2023-02-12T16:51:21.120Z,101471.56
2023-02-12T16:54:34.397Z,101481.21
2023-02-12T16:57:36.061Z,101484.30
2023-02-12T17:00:37.730Z,101483.42
2023-02-12T17:03:39.714Z,101473.84
2023-02-12T17:06:41.309Z,101464.30
2023-02-12T17:09:42.864Z,101464.80
2023-02-12T17:12:46.971Z,101461.69
2023-02-12T17:15:55.964Z,101466.19
2023-02-12T17:18:58.208Z,101463.79
2023-02-12T17:21:59.948Z,101464.98
2023-02-12T17:25:01.551Z,101467.11
2023-02-12T17:28:03.315Z,101471.21
2023-02-12T17:31:05.107Z,101473.92
2023-02-12T17:34:06.599Z,101477.72
2023-02-12T17:37:08.244Z,101482.52
2023-02-12T17:40:10.324Z,101480.05
2023-02-12T17:43:12.032Z,101479.01
2023-02-12T17:46:22.221Z,101479.51
2023-02-12T17:49:23.916Z,101479.23
2023-02-12T17:52:25.520Z,101478.11
2023-02-12T17:55:27.141Z,101481.30
2023-02-12T17:58:28.767Z,101481.10
2023-02-12T18:01:30.457Z,101480.14
2023-02-12T18:04:32.272Z,101478.09
2023-02-12T18:07:35.278Z,101477.45
2023-02-12T18:10:41.227Z,101479.79
2023-02-12T18:13:43.209Z,101480.30
2023-02-12T18:16:44.986Z,101482.22
2023-02-12T18:19:46.589Z,101483.47
2023-02-12T18:22:48.109Z,101487.27
2023-02-12T18:25:49.937Z,101482.80
2023-02-12T18:28:51.406Z,101480.84
2023-02-12T18:31:55.138Z,101476.10
2023-02-12T18:34:56.778Z,101479.39
2023-02-12T18:37:58.820Z,101477.52
2023-02-12T18:41:05.984Z,101470.39
2023-02-12T18:44:07.558Z,101470.03
2023-02-12T18:47:09.134Z,101467.10
2023-02-12T18:50:11.212Z,101461.71
2023-02-12T18:53:12.729Z,101462.90
2023-02-12T18:56:14.585Z,101464.35
2023-02-12T18:59:16.132Z,101463.11
2023-02-12T19:02:17.847Z,101460.66
2023-02-12T19:05:19.620Z,101459.42
2023-02-12T19:08:21.478Z,101461.80
2023-02-12T19:11:23.310Z,101463.42
2023-02-12T19:14:26.735Z,101465.05
2023-02-12T19:17:28.581Z,101467.15
2023-02-12T19:20:31.357Z,101468.69
2023-02-12T19:23:33.232Z,101465.23
2023-02-12T19:26:35.209Z,101462.56
2023-02-12T19:29:36.906Z,101464.84
2023-02-12T19:32:38.443Z,101465.14
2023-02-12T19:35:40.235Z,101468.69
2023-02-12T19:38:42.105Z,101472.46
2023-02-12T19:41:43.736Z,101466.20
2023-02-12T19:44:45.719Z,101464.96
2023-02-12T19:47:47.243Z,101463.54
2023-02-12T19:50:48.829Z,101460.85
2023-02-12T19:53:51.411Z,101455.11
2023-02-12T19:56:53.827Z,101451.09
2023-02-12T19:59:55.402Z,101442.21
2023-02-12T20:02:57.009Z,101438.98
2023-02-12T20:06:02.527Z,101436.02
2023-02-12T20:09:05.416Z,101438.56
2023-02-12T20:12:07.189Z,101438.10
2023-02-12T20:15:09.099Z,101446.67
2023-02-12T20:18:10.603Z,101451.30
2023-02-12T20:21:14.818Z,101454.50
2023-02-12T20:24:16.672Z,101456.20
2023-02-12T20:27:18.378Z,101457.08
2023-02-12T20:30:20.492Z,101459.71
2023-02-12T20:33:22.273Z,101456.38
2023-02-12T20:36:24.938Z,101464.53
2023-02-12T20:39:26.489Z,101467.52
2023-02-12T20:42:28.119Z,101462.57
2023-02-12T20:45:29.724Z,101452.45
2023-02-12T20:48:31.392Z,101451.44
2023-02-12T20:51:33.465Z,101450.83
2023-02-12T20:54:35.186Z,101449.41
2023-02-12T20:57:36.753Z,101443.66
2023-02-12T21:00:38.275Z,101449.28
2023-02-12T21:03:40.435Z,101448.95
2023-02-12T21:06:42.806Z,101446.22
2023-02-12T21:09:44.523Z,101444.02
2023-02-12T21:12:46.003Z,101447.30
2023-02-12T21:15:47.639Z,101446.24
2023-02-12T21:18:49.847Z,101443.25
2023-02-12T21:21:51.687Z,101439.92
2023-02-12T21:24:53.168Z,101441.60
2023-02-12T21:27:55.007Z,101440.52
2023-02-12T21:30:56.576Z,101445.39
2023-02-12T21:33:59.867Z,101445.61
2023-02-12T21:37:01.707Z,101449.32
2023-02-12T21:40:03.608Z,101447.08
2023-02-12T21:43:05.405Z,101441.15
2023-02-12T21:46:07.371Z,101434.78
2023-02-12T21:49:09.494Z,101439.33
2023-02-12T21:52:11.127Z,101438.86
2023-02-12T21:55:12.923Z,101440.81
2023-02-12T21:58:14.418Z,101445.86
2023-02-12T22:01:19.168Z,101447.15
2023-02-12T22:04:21.064Z,101448.61
2023-02-12T22:07:22.795Z,101448.52
2023-02-12T22:10:24.386Z,101448.61
2023-02-12T22:13:25.926Z,101449.17
2023-02-12T22:16:28.795Z,101451.98
2023-02-12T22:19:30.425Z,101460.08
2023-02-12T22:22:32.004Z,101466.63
2023-02-12T22:25:33.868Z,101473.48
2023-02-12T22:28:38.895Z,101478.34
2023-02-12T22:31:42.640Z,101478.39
2023-02-12T22:34:44.764Z,101471.84
2023-02-12T22:37:46.345Z,101476.85
2023-02-12T22:40:53.065Z,101475.27
2023-02-12T22:43:55.202Z,101474.16
2023-02-12T22:46:56.882Z,101465.90
2023-02-12T22:50:00.003Z,101463.40
2023-02-12T22:53:01.570Z,101463.77
2023-02-12T22:56:04.995Z,101466.88
2023-02-12T22:59:07.088Z,101464.05
2023-02-12T23:02:08.918Z,101466.02
2023-02-12T23:05:10.645Z,101466.60
2023-02-12T23:08:12.424Z,101472.73
2023-02-12T23:11:13.920Z,101468.63
2023-02-12T23:14:16.341Z,101465.25
2023-02-12T23:17:17.908Z,101462.98
2023-02-12T23:20:19.680Z,101461.61
2023-02-12T23:23:21.517Z,101460.41
2023-02-12T23:26:23.412Z,101459.76
2023-02-12T23:29:24.938Z,101464.91
2023-02-12T23:32:26.535Z,101461.02
2023-02-12T23:35:28.656Z,101457.96
2023-02-12T23:38:30.321Z,101455.90
2023-02-12T23:41:31.987Z,101447.20
2023-02-12T23:44:33.771Z,101439.38
2023-02-12T23:47:35.395Z,101432.88
2023-02-12T23:50:37.002Z,101431.52
2023-02-12T23:53:38.764Z,101432.79
2023-02-12T23:56:40.248Z,101435.11
2023-02-12T23:59:41.837Z,101439.36
